createdAt,value
2019-03-03T00:00:36.287Z,11.6
2019-03-03T00:01:18.877Z,11.67
2019-03-03T00:02:01.261Z,11.51
2019-03-03T00:02:58.497Z,11.45
2019-03-03T00:03:43.711Z,11.45
2019-03-03T00:04:24.297Z,11.44
2019-03-03T00:05:21.948Z,11.35
2019-03-03T00:06:05.028Z,11.39
2019-03-03T00:06:45.300Z,11.36
2019-03-03T00:07:29.936Z,11.31
2019-03-03T00:08:10.553Z,11.3
2019-03-03T00:08:53.131Z,11.28
2019-03-03T00:09:37.039Z,11.23
2019-03-03T00:12:47.329Z,11.19
2019-03-03T00:15:01.671Z,11.08
2019-03-03T00:15:50.410Z,11.06
2019-03-03T00:16:29.265Z,11.08
2019-03-03T00:17:09.599Z,11.08
2019-03-03T00:17:54.939Z,11.09
2019-03-03T00:18:42.572Z,11.05
2019-03-03T00:19:24.949Z,11.08
2019-03-03T00:20:05.501Z,10.98
2019-03-03T00:21:57.814Z,10.88
2019-03-03T00:22:42.209Z,10.88
2019-03-03T00:23:22.669Z,10.87
2019-03-03T00:24:03.211Z,10.75
2019-03-03T00:24:43.423Z,10.76
2019-03-03T00:25:27.676Z,10.72
2019-03-03T00:26:08.676Z,10.7
2019-03-03T00:26:51.639Z,10.57
2019-03-03T00:27:32.152Z,10.66
2019-03-03T00:28:12.682Z,10.58
2019-03-03T00:28:53.150Z,10.57
2019-03-03T00:29:33.924Z,10.66
2019-03-03T00:30:14.495Z,10.52
2019-03-03T00:30:55.161Z,10.43
2019-03-03T00:31:37.685Z,10.46
2019-03-03T00:38:33.467Z,10.1
2019-03-03T00:40:42.547Z,10.06
2019-03-03T00:42:21.847Z,9.98
2019-03-03T00:43:14.804Z,9.83
2019-03-03T00:44:05.537Z,9.81
2019-03-03T00:45:46.529Z,9.81
2019-03-03T00:48:54.001Z,9.73
2019-03-03T00:49:36.617Z,9.8
2019-03-03T00:50:20.787Z,9.81
2019-03-03T00:51:02.293Z,9.8
2019-03-03T00:51:44.664Z,9.77
2019-03-03T00:52:25.888Z,9.8
2019-03-03T00:53:22.191Z,9.77
2019-03-03T00:54:03.059Z,9.8
2019-03-03T00:56:12.060Z,9.88
2019-03-03T00:57:04.310Z,9.86
2019-03-03T00:57:57.163Z,9.83
2019-03-03T01:00:35.703Z,9.86
2019-03-03T01:03:43.702Z,9.77
2019-03-03T01:06:08.536Z,9.77
2019-03-03T01:10:03.353Z,9.8
2019-03-03T01:15:56.243Z,9.68
2019-03-03T01:16:37.238Z,9.71
2019-03-03T01:17:18.010Z,9.67
2019-03-03T01:17:58.489Z,9.74
2019-03-03T01:18:38.899Z,9.65
2019-03-03T01:19:19.403Z,9.7
2019-03-03T01:20:00.906Z,9.7
2019-03-03T01:20:40.989Z,9.75
2019-03-03T01:21:29.753Z,9.74
2019-03-03T01:22:11.058Z,9.68
2019-03-03T01:22:51.421Z,9.67
2019-03-03T01:23:32.728Z,9.7
2019-03-03T01:24:30.628Z,9.7
2019-03-03T01:25:12.750Z,9.7
2019-03-03T01:25:54.119Z,9.74
2019-03-03T01:26:37.102Z,9.65
2019-03-03T01:27:17.446Z,9.71
2019-03-03T01:28:01.916Z,9.74
2019-03-03T01:28:43.759Z,9.68
2019-03-03T01:29:58.058Z,9.73
2019-03-03T01:32:06.574Z,9.6
2019-03-03T01:34:09.492Z,9.62
2019-03-03T01:35:00.407Z,9.55
2019-03-03T01:38:32.633Z,9.63
2019-03-03T01:41:02.983Z,9.59
2019-03-03T01:41:48.974Z,9.7
2019-03-03T01:46:29.740Z,9.86
2019-03-03T01:50:14.755Z,10.25
2019-03-03T01:50:55.485Z,10.32
2019-03-03T01:51:35.847Z,10.39
2019-03-03T01:52:18.122Z,10.6
2019-03-03T01:53:00.671Z,10.73
2019-03-03T01:53:41.549Z,10.91
2019-03-03T01:54:22.569Z,10.93
2019-03-03T01:55:05.035Z,11.06
2019-03-03T01:55:45.416Z,11.17
2019-03-03T01:56:27.329Z,11.12
2019-03-03T01:57:07.581Z,11.17
2019-03-03T01:57:48.233Z,11.33
2019-03-03T01:58:28.397Z,11.39
2019-03-03T01:59:12.347Z,11.42
2019-03-03T01:59:54.795Z,11.62
2019-03-03T02:00:36.225Z,11.6
2019-03-03T02:01:17.177Z,11.62
2019-03-03T02:01:59.358Z,11.6
2019-03-03T02:02:42.467Z,11.63
2019-03-03T02:03:22.819Z,11.6
2019-03-03T02:04:04.793Z,11.75
2019-03-03T02:04:44.906Z,11.78
2019-03-03T02:05:26.778Z,11.79
2019-03-03T02:06:09.520Z,11.81
2019-03-03T02:06:51.745Z,11.82
2019-03-03T02:07:32.363Z,11.84
2019-03-03T02:08:13.708Z,11.87
2019-03-03T02:08:53.988Z,11.97
2019-03-03T02:09:34.326Z,11.87
2019-03-03T02:10:14.853Z,11.87
2019-03-03T02:10:56.944Z,11.93
2019-03-03T02:11:37.530Z,11.94
2019-03-03T02:12:20.230Z,11.97
2019-03-03T02:13:01.415Z,11.87
2019-03-03T02:13:43.611Z,11.85
2019-03-03T02:14:25.803Z,11.78
2019-03-03T02:15:06.204Z,11.81
2019-03-03T02:15:49.180Z,11.6
2019-03-03T02:16:31.668Z,11.74
2019-03-03T02:17:14.418Z,11.74
2019-03-03T02:17:57.088Z,11.72
2019-03-03T02:18:38.765Z,11.88
2019-03-03T02:19:19.457Z,11.94
2019-03-03T02:20:00.375Z,11.93
2019-03-03T02:20:40.917Z,11.93
2019-03-03T02:21:22.293Z,11.93
2019-03-03T02:22:04.223Z,11.87
2019-03-03T02:22:44.816Z,11.93
2019-03-03T02:29:49.155Z,11.85
2019-03-03T02:30:31.063Z,11.82
2019-03-03T02:31:11.445Z,11.96
2019-03-03T02:31:52.440Z,11.97
2019-03-03T02:32:32.671Z,11.88
2019-03-03T02:33:13.071Z,11.98
2019-03-03T02:33:57.811Z,11.96
2019-03-03T02:34:39.107Z,11.93
2019-03-03T02:35:19.826Z,11.98
2019-03-03T02:36:02.466Z,12.03
2019-03-03T02:36:43.945Z,11.98
2019-03-03T02:37:24.445Z,11.98
2019-03-03T02:38:05.027Z,11.88
2019-03-03T02:38:45.367Z,11.77
2019-03-03T02:39:27.072Z,11.64
2019-03-03T02:40:08.295Z,11.64
2019-03-03T02:40:50.740Z,11.72
2019-03-03T02:41:31.234Z,11.84
2019-03-03T02:42:11.960Z,11.81
2019-03-03T02:42:53.008Z,11.88
2019-03-03T02:43:33.988Z,11.85
2019-03-03T02:44:15.404Z,12
2019-03-03T02:48:07.429Z,11.81
2019-03-03T02:51:18.587Z,11.53
2019-03-03T02:56:44.141Z,11.67
2019-03-03T02:57:27.414Z,11.64
2019-03-03T02:58:09.512Z,11.64
2019-03-03T02:58:48.712Z,11.7
2019-03-03T02:59:29.323Z,11.77
2019-03-03T03:00:11.523Z,11.77
2019-03-03T03:00:52.824Z,11.64
2019-03-03T03:01:33.362Z,11.62
2019-03-03T03:02:13.866Z,11.66
2019-03-03T03:02:54.659Z,11.63
2019-03-03T03:03:35.461Z,11.6
2019-03-03T03:04:17.757Z,11.69
2019-03-03T03:04:59.480Z,11.62
2019-03-03T03:05:45.711Z,11.62
2019-03-03T03:06:27.883Z,11.63
2019-03-03T03:07:10.044Z,11.6
2019-03-03T03:07:50.690Z,11.6
2019-03-03T03:08:31.078Z,11.62
2019-03-03T03:09:14.006Z,11.62
2019-03-03T03:09:54.744Z,11.62
2019-03-03T03:10:39.273Z,11.59
2019-03-03T03:11:19.644Z,11.53
2019-03-03T03:12:01.009Z,11.44
2019-03-03T03:12:45.877Z,11.33
2019-03-03T03:13:26.265Z,11.3
2019-03-03T03:14:06.590Z,11.31
2019-03-03T03:14:48.701Z,11.28
2019-03-03T03:15:30.226Z,11.26
2019-03-03T03:16:13.858Z,11.17
2019-03-03T03:16:54.373Z,11.26
2019-03-03T03:17:38.461Z,11.21
2019-03-03T03:18:20.853Z,11.26
2019-03-03T03:19:03.370Z,11.2
2019-03-03T03:19:46.761Z,11.27
2019-03-03T03:20:34.795Z,11.26
2019-03-03T03:21:15.168Z,11.36
2019-03-03T03:21:56.805Z,11.31
2019-03-03T03:22:36.929Z,11.41
2019-03-03T03:23:17.757Z,11.33
2019-03-03T03:23:57.873Z,11.39
2019-03-03T03:24:39.146Z,11.3
2019-03-03T03:25:19.039Z,11.35
2019-03-03T03:26:01.427Z,11.28
2019-03-03T03:26:51.822Z,11.19
2019-03-03T03:27:32.272Z,11.17
2019-03-03T03:28:12.750Z,11.17
2019-03-03T03:28:53.751Z,11.21
2019-03-03T03:29:34.112Z,11.16
2019-03-03T03:30:14.491Z,11.21
2019-03-03T03:30:58.965Z,11.21
2019-03-03T03:31:40.555Z,11.24
2019-03-03T03:32:23.469Z,11.21
2019-03-03T03:33:03.857Z,11.28
2019-03-03T03:33:44.174Z,11.39
2019-03-03T03:34:25.534Z,11.39
2019-03-03T03:35:06.119Z,11.3
2019-03-03T03:35:47.745Z,11.24
2019-03-03T03:36:33.258Z,11.23
2019-03-03T03:37:15.512Z,11.3
2019-03-03T03:37:58.961Z,11.27
2019-03-03T03:38:39.291Z,11.28
2019-03-03T03:39:19.710Z,11.38
2019-03-03T03:40:03.363Z,11.54
2019-03-03T03:40:43.817Z,11.53
2019-03-03T03:41:24.248Z,11.54
2019-03-03T03:42:04.720Z,11.56
2019-03-03T03:42:45.056Z,11.6
2019-03-03T03:43:25.449Z,11.67
2019-03-03T03:44:07.498Z,11.62
2019-03-03T03:44:49.751Z,11.77
2019-03-03T03:45:34.688Z,11.74
2019-03-03T03:46:16.920Z,11.72
2019-03-03T03:47:01.436Z,11.72
2019-03-03T03:47:41.781Z,11.78
2019-03-03T03:48:22.176Z,11.7
2019-03-03T03:49:02.729Z,11.85
2019-03-03T03:49:45.663Z,11.82
2019-03-03T03:50:26.041Z,11.84
2019-03-03T03:51:06.514Z,11.85
2019-03-03T03:51:47.211Z,11.78
2019-03-03T03:52:27.999Z,11.72
2019-03-03T03:53:08.362Z,11.75
2019-03-03T03:53:49.029Z,11.82
2019-03-03T03:54:29.252Z,11.85
2019-03-03T03:55:13.849Z,11.82
2019-03-03T03:55:56.398Z,11.82
2019-03-03T03:56:36.982Z,11.82
2019-03-03T03:58:57.282Z,11.85
2019-03-03T03:59:38.607Z,11.96
2019-03-03T04:00:21.121Z,11.98
2019-03-03T04:01:05.672Z,11.98
2019-03-03T04:01:47.174Z,11.96
2019-03-03T04:02:29.521Z,12.01
2019-03-03T04:03:11.922Z,12.03
2019-03-03T04:03:59.867Z,12.07
2019-03-03T04:04:40.318Z,12.07
2019-03-03T04:05:21.666Z,12.16
2019-03-03T04:06:03.600Z,12.16
2019-03-03T04:06:44.022Z,12.18
2019-03-03T04:07:24.412Z,12.25
2019-03-03T04:08:04.848Z,12.23
2019-03-03T04:08:45.239Z,12.34
2019-03-03T04:09:25.618Z,12.36
2019-03-03T04:10:07.699Z,12.44
2019-03-03T04:10:49.917Z,12.44
2019-03-03T04:11:30.435Z,12.37
2019-03-03T04:12:11.378Z,12.4
2019-03-03T04:12:53.528Z,12.43
2019-03-03T04:13:42.855Z,12.33
2019-03-03T04:14:27.700Z,12.3
2019-03-03T04:15:08.085Z,12.12
2019-03-03T04:15:48.445Z,12.19
2019-03-03T04:16:28.840Z,12.12
2019-03-03T04:17:14.092Z,12.18
2019-03-03T04:17:54.170Z,12.11
2019-03-03T04:18:36.500Z,12.15
2019-03-03T04:19:16.981Z,12.16
2019-03-03T04:19:57.322Z,12.16
2019-03-03T04:20:38.101Z,12.15
2019-03-03T04:21:20.596Z,12.15
2019-03-03T04:22:01.056Z,12.12
2019-03-03T04:22:43.747Z,12.08
2019-03-03T04:23:24.522Z,12.08
2019-03-03T04:24:06.491Z,11.97
2019-03-03T04:24:46.947Z,11.93
2019-03-03T04:25:27.667Z,12.01
2019-03-03T04:26:08.277Z,11.98
2019-03-03T04:26:48.609Z,12.05
2019-03-03T04:27:29.036Z,12.04
2019-03-03T04:28:09.928Z,12.11
2019-03-03T04:28:52.228Z,12.07
2019-03-03T05:07:18.625Z,11.9
2019-03-03T05:08:09.030Z,11.97
2019-03-03T05:11:39.408Z,11.85
2019-03-03T05:12:27.579Z,11.85
2019-03-03T05:13:15.567Z,11.96
2019-03-03T05:13:55.724Z,11.87
2019-03-03T05:14:36.054Z,11.9
2019-03-03T05:15:16.593Z,12.03
2019-03-03T05:15:56.968Z,11.93
2019-03-03T05:16:37.557Z,12
2019-03-03T05:17:18.031Z,11.96
2019-03-03T05:17:59.002Z,12.03
2019-03-03T05:18:39.488Z,12.05
2019-03-03T05:19:19.924Z,12.13
2019-03-03T05:20:00.332Z,12.05
2019-03-03T05:20:41.107Z,12.12
2019-03-03T05:21:21.925Z,12.19
2019-03-03T05:22:02.608Z,12.16
2019-03-03T05:22:43.698Z,12.25
2019-03-03T05:23:24.257Z,12.23
2019-03-03T05:24:04.678Z,12.33
2019-03-03T05:24:46.239Z,12.37
2019-03-03T05:26:28.132Z,12.49
2019-03-03T05:27:18.882Z,12.4
2019-03-03T05:28:13.688Z,12.37
2019-03-03T05:29:47.735Z,12.4
2019-03-03T05:30:28.537Z,12.51
2019-03-03T05:31:09.863Z,12.43
2019-03-03T05:31:52.392Z,12.52
2019-03-03T05:32:32.859Z,12.59
2019-03-03T05:33:13.254Z,12.59
2019-03-03T05:33:53.656Z,12.63
2019-03-03T05:34:34.061Z,12.73
2019-03-03T05:35:14.471Z,12.73
2019-03-03T05:35:56.875Z,12.79
2019-03-03T05:36:37.170Z,12.84
2019-03-03T05:37:17.514Z,12.8
2019-03-03T05:37:57.904Z,12.77
2019-03-03T05:38:38.291Z,12.8
2019-03-03T05:39:20.546Z,12.73
2019-03-03T05:40:01.074Z,12.74
2019-03-03T05:40:41.720Z,12.84
2019-03-03T05:41:21.847Z,12.77
2019-03-03T05:42:03.751Z,12.74
2019-03-03T05:42:46.045Z,12.7
2019-03-03T05:43:27.355Z,12.59
2019-03-03T05:44:08.194Z,12.77
2019-03-03T05:44:48.392Z,12.79
2019-03-03T05:45:29.626Z,12.74
2019-03-03T05:46:10.019Z,12.74
2019-03-03T05:46:51.312Z,12.81
2019-03-03T05:47:34.243Z,12.79
2019-03-03T05:48:14.662Z,12.76
2019-03-03T05:48:55.104Z,12.79
2019-03-03T05:49:35.435Z,12.81
2019-03-03T05:50:15.787Z,12.76
2019-03-03T05:50:56.206Z,12.8
2019-03-03T05:51:36.803Z,12.79
2019-03-03T05:52:17.170Z,12.77
2019-03-03T05:52:57.922Z,12.8
2019-03-03T05:53:38.756Z,12.77
2019-03-03T05:54:19.141Z,12.8
2019-03-03T05:54:59.438Z,12.76
2019-03-03T05:55:39.913Z,12.74
2019-03-03T05:56:20.363Z,12.88
2019-03-03T05:57:00.697Z,12.89
2019-03-03T05:57:41.645Z,12.8
2019-03-03T05:58:23.021Z,12.94
2019-03-03T05:59:03.540Z,12.89
2019-03-03T05:59:46.715Z,12.94
2019-03-03T06:00:27.286Z,12.84
2019-03-03T06:01:07.654Z,12.95
2019-03-03T06:01:48.119Z,12.88
2019-03-03T06:02:28.502Z,12.77
2019-03-03T06:03:10.788Z,12.76
2019-03-03T06:03:51.625Z,12.76
2019-03-03T06:04:31.701Z,12.79
2019-03-03T06:05:12.115Z,12.8
2019-03-03T06:05:52.831Z,12.79
2019-03-03T06:06:33.224Z,12.79
2019-03-03T06:07:15.737Z,12.85
2019-03-03T06:07:56.143Z,12.91
2019-03-03T06:08:36.605Z,12.8
2019-03-03T06:09:16.904Z,12.79
2019-03-03T06:09:57.269Z,12.85
2019-03-03T06:10:37.667Z,12.8
2019-03-03T06:11:18.057Z,12.76
2019-03-03T06:11:58.446Z,12.61
2019-03-03T06:12:38.854Z,12.54
2019-03-03T06:13:21.816Z,12.55
2019-03-03T06:14:02.087Z,12.54
2019-03-03T06:14:42.784Z,12.49
2019-03-03T06:15:23.354Z,12.49
2019-03-03T06:16:03.700Z,12.46
2019-03-03T06:16:44.078Z,12.58
2019-03-03T06:17:24.515Z,12.54
2019-03-03T06:18:05.109Z,12.52
2019-03-03T06:18:45.467Z,12.49
2019-03-03T06:19:27.784Z,12.43
2019-03-03T06:20:08.352Z,12.46
2019-03-03T06:20:48.733Z,12.44
2019-03-03T06:21:31.139Z,12.55
2019-03-03T06:22:11.518Z,12.58
2019-03-03T06:22:52.118Z,12.54
2019-03-03T06:23:32.479Z,12.59
2019-03-03T06:24:12.821Z,12.58
2019-03-03T06:24:54.755Z,12.63
2019-03-03T06:25:37.037Z,12.59
2019-03-03T06:26:17.470Z,12.71
2019-03-03T06:26:58.000Z,12.58
2019-03-03T06:27:39.942Z,12.73
2019-03-03T06:28:22.563Z,12.84
2019-03-03T06:29:02.798Z,12.79
2019-03-03T06:29:44.771Z,12.79
2019-03-03T06:30:25.148Z,12.94
2019-03-03T06:31:05.545Z,12.92
2019-03-03T06:31:45.932Z,12.98
2019-03-03T06:32:28.898Z,12.87
2019-03-03T06:33:10.289Z,12.96
2019-03-03T06:33:51.579Z,12.99
2019-03-03T06:34:32.022Z,12.89
2019-03-03T06:35:12.368Z,12.84
2019-03-03T06:35:52.894Z,12.92
2019-03-03T06:36:33.205Z,12.95
2019-03-03T06:37:13.523Z,12.91
2019-03-03T06:37:53.918Z,12.99
2019-03-03T06:38:34.312Z,13.07
2019-03-03T06:39:14.784Z,13.09
2019-03-03T06:39:55.181Z,13.07
2019-03-03T06:40:35.670Z,13.12
2019-03-03T06:41:16.464Z,13.14
2019-03-03T06:41:59.209Z,13.13
2019-03-03T06:42:39.738Z,13.16
2019-03-03T06:43:20.050Z,13.07
2019-03-03T06:44:00.437Z,13.07
2019-03-03T06:44:41.103Z,13.07
2019-03-03T06:45:22.922Z,13.17
2019-03-03T06:46:04.812Z,13.1
2019-03-03T06:46:45.158Z,13.14
2019-03-03T06:47:25.541Z,13.12
2019-03-03T06:48:07.064Z,13.12
2019-03-03T06:48:47.541Z,13.13
2019-03-03T06:49:29.855Z,13.12
2019-03-03T06:50:10.157Z,13.13
2019-03-03T06:50:50.661Z,13.1
2019-03-03T06:51:31.856Z,13.01
2019-03-03T06:52:13.843Z,12.99
2019-03-03T06:52:54.193Z,12.92
2019-03-03T06:53:34.586Z,13.03
2019-03-03T06:54:15.061Z,13.07
2019-03-03T06:54:55.405Z,13.16
2019-03-03T06:55:35.992Z,13.19
2019-03-03T06:56:16.240Z,13.21
2019-03-03T06:56:56.782Z,13.19
2019-03-03T06:57:37.103Z,13.16
2019-03-03T06:58:19.413Z,13.21
2019-03-03T06:58:59.803Z,13.21
2019-03-03T06:59:41.265Z,13.19
2019-03-03T07:00:21.771Z,13.21
2019-03-03T07:01:02.213Z,13.25
2019-03-03T07:01:42.698Z,13.27
2019-03-03T07:02:23.923Z,13.17
2019-03-03T07:03:06.342Z,13.25
2019-03-03T07:03:46.784Z,13.21
2019-03-03T07:04:27.231Z,13.16
2019-03-03T07:05:07.608Z,13.29
2019-03-03T07:05:48.020Z,13.25
2019-03-03T07:06:28.471Z,13.24
2019-03-03T07:07:08.839Z,13.17
2019-03-03T07:07:51.018Z,13.24
2019-03-03T07:08:31.352Z,13.16
2019-03-03T07:09:11.743Z,13.1
2019-03-03T07:09:52.455Z,13.16
2019-03-03T07:10:32.876Z,13.21
2019-03-03T07:11:14.277Z,13.21
2019-03-03T07:11:54.661Z,13.24
2019-03-03T07:12:35.240Z,13.27
2019-03-03T07:13:15.675Z,13.17
2019-03-03T07:13:57.128Z,13.21
2019-03-03T07:14:37.655Z,13.27
2019-03-03T07:15:17.946Z,13.25
2019-03-03T07:15:58.553Z,13.27
2019-03-03T07:16:39.017Z,13.16
2019-03-03T07:17:19.555Z,13.14
2019-03-03T07:17:59.849Z,13.06
2019-03-03T07:18:43.440Z,13.13
2019-03-03T07:19:23.810Z,13.27
2019-03-03T07:20:04.416Z,13.25
2019-03-03T07:20:48.594Z,13.29
2019-03-03T07:21:29.017Z,13.22
2019-03-03T07:22:09.367Z,13.25
2019-03-03T07:22:49.775Z,13.25
2019-03-03T07:23:30.156Z,13.31
2019-03-03T07:24:10.539Z,13.46
2019-03-03T07:24:50.944Z,13.43
2019-03-03T07:25:31.363Z,13.5
2019-03-03T07:26:11.757Z,13.51
2019-03-03T07:26:52.240Z,13.51
2019-03-03T07:27:32.612Z,13.48
2019-03-03T07:28:13.039Z,13.48
2019-03-03T07:28:53.850Z,13.51
2019-03-03T07:29:34.415Z,13.48
2019-03-03T07:30:14.959Z,13.5
2019-03-03T07:30:55.220Z,13.51
2019-03-03T07:31:37.508Z,13.43
2019-03-03T07:32:17.931Z,13.41
2019-03-03T07:32:58.302Z,13.57
2019-03-03T07:33:38.762Z,13.41
2019-03-03T07:34:19.745Z,13.59
2019-03-03T07:35:00.280Z,13.55
2019-03-03T07:35:40.645Z,13.54
2019-03-03T07:36:21.938Z,13.51
2019-03-03T07:37:02.372Z,13.61
2019-03-03T07:37:43.003Z,13.5
2019-03-03T07:38:23.544Z,13.59
2019-03-03T07:39:04.014Z,13.59
2019-03-03T07:39:44.395Z,13.61
2019-03-03T07:40:25.854Z,13.65
2019-03-03T07:41:07.910Z,13.63
2019-03-03T07:41:48.270Z,13.63
2019-03-03T07:42:28.716Z,13.63
2019-03-03T07:43:09.354Z,13.61
2019-03-03T07:43:50.086Z,13.54
2019-03-03T07:44:30.536Z,13.55
2019-03-03T07:45:11.869Z,13.48
2019-03-03T07:45:52.236Z,13.48
2019-03-03T07:46:32.829Z,13.48
2019-03-03T07:47:13.384Z,13.46
2019-03-03T07:47:55.647Z,13.46
2019-03-03T07:48:36.035Z,13.41
2019-03-03T07:49:18.299Z,13.54
2019-03-03T07:49:58.662Z,13.48
2019-03-03T07:50:39.100Z,13.44
2019-03-03T07:51:19.781Z,13.51
2019-03-03T07:52:00.167Z,13.59
2019-03-03T07:52:40.603Z,13.62
2019-03-03T07:53:21.004Z,13.66
2019-03-03T07:54:03.123Z,13.65
2019-03-03T07:54:43.521Z,13.68
2019-03-03T07:55:24.858Z,13.8
2019-03-03T07:56:05.301Z,13.86
2019-03-03T07:56:45.642Z,13.87
2019-03-03T07:57:26.032Z,13.84
2019-03-03T07:58:06.433Z,13.86
2019-03-03T07:58:46.973Z,13.81
2019-03-03T07:59:27.293Z,13.86
2019-03-03T08:00:07.711Z,13.79
2019-03-03T08:17:45.654Z,13.68
2019-03-03T08:20:06.311Z,13.72
2019-03-03T08:20:47.924Z,13.79
2019-03-03T08:21:28.967Z,13.81
2019-03-03T08:22:10.333Z,13.8
2019-03-03T08:22:50.735Z,13.71
2019-03-03T08:23:31.135Z,13.66
2019-03-03T08:24:12.487Z,13.65
2019-03-03T08:24:57.679Z,13.69
2019-03-03T08:25:38.152Z,13.66
2019-03-03T08:26:18.684Z,13.71
2019-03-03T08:26:59.050Z,13.73
2019-03-03T08:27:41.111Z,13.62
2019-03-03T08:28:22.441Z,13.68
2019-03-03T08:29:02.837Z,13.57
2019-03-03T08:29:43.253Z,13.66
2019-03-03T08:30:23.803Z,13.72
2019-03-03T08:31:04.179Z,13.65
2019-03-03T08:31:45.608Z,13.69
2019-03-03T08:32:26.089Z,13.75
2019-03-03T08:33:06.501Z,13.81
2019-03-03T08:33:48.853Z,13.84
2019-03-03T08:34:29.243Z,13.63
2019-03-03T08:35:09.681Z,13.73
2019-03-03T08:35:50.363Z,13.71
2019-03-03T08:36:30.882Z,13.8
2019-03-03T08:37:13.407Z,13.81
2019-03-03T08:37:53.719Z,13.86
2019-03-03T08:38:34.199Z,13.8
2019-03-03T08:39:14.501Z,13.8
2019-03-03T08:39:55.007Z,13.8
2019-03-03T08:40:35.539Z,13.83
2019-03-03T08:41:15.926Z,13.86
2019-03-03T08:41:56.493Z,13.73
2019-03-03T08:42:37.836Z,13.76
2019-03-03T08:43:18.241Z,13.66
2019-03-03T08:43:58.623Z,13.68
2019-03-03T08:44:39.237Z,13.62
2019-03-03T08:45:20.524Z,13.69
2019-03-03T08:46:01.107Z,13.57
2019-03-03T08:46:41.622Z,13.61
2019-03-03T08:47:22.029Z,13.57
2019-03-03T08:48:02.415Z,13.66
2019-03-03T08:48:43.764Z,13.61
2019-03-03T08:49:24.364Z,13.66
2019-03-03T08:50:04.909Z,13.59
2019-03-03T08:50:45.299Z,13.57
2019-03-03T08:51:26.986Z,13.59
2019-03-03T08:52:07.555Z,13.54
2019-03-03T08:52:49.796Z,13.61
2019-03-03T08:53:30.125Z,13.46
2019-03-03T08:54:10.768Z,13.53
2019-03-03T08:54:51.350Z,13.51
2019-03-03T08:55:31.640Z,13.55
2019-03-03T08:56:11.883Z,13.57
2019-03-03T08:56:52.361Z,13.55
2019-03-03T08:57:32.756Z,13.57
2019-03-03T08:58:14.025Z,13.57
2019-03-03T08:58:54.907Z,13.61
2019-03-03T08:59:35.294Z,13.63
2019-03-03T09:00:15.820Z,13.65
2019-03-03T09:00:56.100Z,13.66
2019-03-03T09:01:38.089Z,13.71
2019-03-03T09:02:18.484Z,13.71
2019-03-03T09:02:59.142Z,13.72
2019-03-03T09:03:39.558Z,13.75
2019-03-03T09:04:21.764Z,13.83
2019-03-03T09:05:03.256Z,13.84
2019-03-03T09:05:44.575Z,13.81
2019-03-03T09:06:25.012Z,13.76
2019-03-03T09:07:05.475Z,13.81
2019-03-03T09:07:45.902Z,13.84
2019-03-03T09:08:27.330Z,13.88
2019-03-03T09:09:09.802Z,13.86
2019-03-03T09:09:50.225Z,13.9
2019-03-03T09:10:30.630Z,13.91
2019-03-03T09:11:11.014Z,13.9
2019-03-03T09:11:53.450Z,13.87
2019-03-03T09:12:33.838Z,13.91
2019-03-03T09:13:14.297Z,13.98
2019-03-03T09:13:54.706Z,14.02
2019-03-03T09:14:36.811Z,14.04
2019-03-03T09:15:19.027Z,14.01
2019-03-03T09:15:59.382Z,14.12
2019-03-03T09:16:43.531Z,13.98
2019-03-03T09:17:23.959Z,13.91
2019-03-03T09:18:04.285Z,13.88
2019-03-03T09:18:46.680Z,13.87
2019-03-03T09:19:27.082Z,13.81
2019-03-03T09:20:07.508Z,13.73
2019-03-03T09:20:49.646Z,13.75
2019-03-03T09:21:30.065Z,13.69
2019-03-03T09:22:10.693Z,13.66
2019-03-03T09:22:51.235Z,13.69
2019-03-03T09:23:33.765Z,13.59
2019-03-03T09:24:14.114Z,13.66
2019-03-03T09:24:54.450Z,13.65
2019-03-03T09:25:34.849Z,13.72
2019-03-03T09:26:16.341Z,13.71
2019-03-03T09:26:59.036Z,13.83
2019-03-03T09:27:41.940Z,13.86
2019-03-03T09:28:24.094Z,13.83
2019-03-03T09:29:08.006Z,13.9
2019-03-03T09:29:48.499Z,13.98
2019-03-03T09:30:28.933Z,14.01
2019-03-03T09:31:10.030Z,14.05
2019-03-03T09:31:50.413Z,14.09
2019-03-03T09:32:30.989Z,14.05
2019-03-03T09:33:11.398Z,13.96
2019-03-03T09:33:52.015Z,13.93
2019-03-03T09:34:32.194Z,14.11
2019-03-03T09:35:12.591Z,14.12
2019-03-03T09:35:52.946Z,13.99
2019-03-03T09:36:34.945Z,13.94
2019-03-03T09:37:15.446Z,13.98
2019-03-03T09:37:56.622Z,13.99
2019-03-03T09:38:38.095Z,13.96
2019-03-03T09:39:18.522Z,13.9
2019-03-03T09:40:08.768Z,13.91
2019-03-03T09:40:39.439Z,14.01
2019-03-03T09:41:19.733Z,14.01
2019-03-03T09:42:00.435Z,13.96
2019-03-03T09:42:41.805Z,13.94
2019-03-03T09:43:23.255Z,14.02
2019-03-03T09:44:03.532Z,13.98
2019-03-03T09:44:47.537Z,14.11
2019-03-03T09:45:27.932Z,14.11
2019-03-03T09:46:09.291Z,14.12
2019-03-03T09:46:49.735Z,14.11
2019-03-03T09:47:30.155Z,14.12
2019-03-03T09:48:10.574Z,14.21
2019-03-03T09:48:50.858Z,14.2
2019-03-03T09:49:33.314Z,14.12
2019-03-03T09:50:13.574Z,14.19
2019-03-03T09:50:53.950Z,14.2
2019-03-03T09:51:34.351Z,14.11
2019-03-03T09:52:15.675Z,14.02
2019-03-03T09:52:56.058Z,14.12
2019-03-03T09:53:36.471Z,14.12
2019-03-03T09:54:17.919Z,14.12
2019-03-03T09:54:58.448Z,14.13
2019-03-03T09:55:38.823Z,14.2
2019-03-03T09:56:19.241Z,14.11
2019-03-03T09:56:59.821Z,14.11
2019-03-03T09:57:42.024Z,14.11
2019-03-03T09:58:22.299Z,14.01
2019-03-03T09:59:02.700Z,13.93
2019-03-03T09:59:43.094Z,13.88
2019-03-03T10:00:24.692Z,13.86
2019-03-03T10:01:05.173Z,13.87
2019-03-03T10:01:45.542Z,13.91
2019-03-03T10:02:25.968Z,13.96
2019-03-03T10:03:06.401Z,13.91
2019-03-03T10:03:48.644Z,13.9
2019-03-03T10:04:30.334Z,13.88
2019-03-03T10:05:12.768Z,13.84
2019-03-03T10:05:53.101Z,13.86
2019-03-03T10:06:33.734Z,13.87
2019-03-03T10:07:14.091Z,13.87
2019-03-03T10:07:54.464Z,13.93
2019-03-03T10:08:34.862Z,13.88
2019-03-03T10:09:16.974Z,13.98
2019-03-03T10:09:57.399Z,13.93
2019-03-03T10:10:37.797Z,13.87
2019-03-03T10:11:18.346Z,13.88
2019-03-03T10:12:00.290Z,13.88
2019-03-03T10:14:09.264Z,13.9
2019-03-03T10:17:38.927Z,14.11
2019-03-03T10:18:25.203Z,14.11
2019-03-03T10:19:07.069Z,14.16
2019-03-03T10:20:58.419Z,14.12
2019-03-03T10:21:39.466Z,14.23
2019-03-03T10:22:19.856Z,14.17
2019-03-03T10:23:00.211Z,14.3
2019-03-03T10:23:40.613Z,14.27
2019-03-03T10:24:21.230Z,14.29
2019-03-03T10:25:02.430Z,14.29
2019-03-03T10:25:43.108Z,14.29
2019-03-03T10:26:23.528Z,14.31
2019-03-03T10:27:05.594Z,14.42
2019-03-03T10:27:45.979Z,14.36
2019-03-03T10:28:26.524Z,14.38
2019-03-03T10:29:06.954Z,14.36
2019-03-03T11:11:18.165Z,13.44
2019-03-03T11:11:57.505Z,13.44
2019-03-03T11:12:37.902Z,13.36
2019-03-03T11:13:20.272Z,13.31
2019-03-03T11:14:01.047Z,13.46
2019-03-03T11:14:41.273Z,13.47
2019-03-03T11:15:22.166Z,13.46
2019-03-03T11:16:06.423Z,13.5
2019-03-03T11:16:48.994Z,13.5
2019-03-03T11:17:29.404Z,13.55
2019-03-03T11:18:10.988Z,13.55
2019-03-03T11:18:55.892Z,13.55
2019-03-03T11:19:31.773Z,13.55
2019-03-03T11:20:14.113Z,13.62
2019-03-03T11:20:54.696Z,13.63
2019-03-03T11:21:36.767Z,13.62
2019-03-03T11:22:17.295Z,13.72
2019-03-03T11:22:57.797Z,13.73
2019-03-03T11:23:38.371Z,13.75
2019-03-03T11:24:23.037Z,13.86
2019-03-03T11:25:04.273Z,13.91
2019-03-03T11:25:44.674Z,13.91
2019-03-03T11:26:26.984Z,14.01
2019-03-03T11:27:07.464Z,14.02
2019-03-03T11:27:48.825Z,14.01
2019-03-03T11:28:29.595Z,14.04
2019-03-03T11:29:09.943Z,14.06
2019-03-03T11:29:50.252Z,14.19
2019-03-03T11:30:30.645Z,14.11
2019-03-03T11:31:11.104Z,14.12
2019-03-03T11:31:51.654Z,14.17
2019-03-03T11:32:31.825Z,14.11
2019-03-03T11:33:12.237Z,14.13
2019-03-03T11:33:52.782Z,14.26
2019-03-03T11:34:33.028Z,14.3
2019-03-03T11:35:14.079Z,14.39
2019-03-03T11:35:55.771Z,14.39
2019-03-03T11:36:38.118Z,14.31
2019-03-03T11:37:20.304Z,14.29
2019-03-03T11:38:00.751Z,14.35
2019-03-03T11:38:42.845Z,14.42
2019-03-03T11:39:23.247Z,14.44
2019-03-03T11:40:04.717Z,14.46
2019-03-03T11:40:45.090Z,14.42
2019-03-03T11:41:25.503Z,14.52
2019-03-03T11:42:08.629Z,14.49
2019-03-03T11:42:49.034Z,14.52
2019-03-03T11:43:29.428Z,14.46
2019-03-03T11:44:09.853Z,14.52
2019-03-03T11:44:52.098Z,14.57
2019-03-03T11:45:32.546Z,14.6
2019-03-03T11:46:15.504Z,14.56
2019-03-03T11:46:55.948Z,14.63
2019-03-03T11:47:36.380Z,14.64
2019-03-03T11:48:20.207Z,14.78
2019-03-03T11:49:00.716Z,14.78
2019-03-03T11:49:41.051Z,14.79
2019-03-03T11:50:22.013Z,14.83
2019-03-03T11:51:04.183Z,14.9